createdAt,value
2023-12-02T00:01:57.167Z,3.85
2023-12-02T00:04:24.915Z,4.20
2023-12-02T00:06:54.580Z,3.95
2023-12-02T00:09:22.505Z,4.00
2023-12-02T00:11:51.342Z,3.70
2023-12-02T00:14:19.203Z,3.33
2023-12-02T00:16:46.666Z,3.50
2023-12-02T00:19:14.263Z,3.38
2023-12-02T00:21:41.879Z,3.72
2023-12-02T00:24:09.422Z,3.35
2023-12-02T00:26:37.003Z,3.60
2023-12-02T00:29:05.012Z,3.72
2023-12-02T00:31:32.872Z,3.58
2023-12-02T00:34:00.799Z,3.72
2023-12-02T00:36:28.649Z,3.42
2023-12-02T00:38:56.155Z,3.50
2023-12-02T00:41:23.647Z,3.47
2023-12-02T00:43:51.245Z,3.60
2023-12-02T00:46:18.678Z,3.50
2023-12-02T00:48:46.225Z,3.33
2023-12-02T00:51:13.763Z,3.58
2023-12-02T00:53:41.260Z,3.35
2023-12-02T00:56:09.105Z,3.00
2023-12-02T00:58:41.365Z,3.50
2023-12-02T01:01:10.656Z,3.45
2023-12-02T01:03:38.520Z,3.17
2023-12-02T01:06:06.393Z,3.55
2023-12-02T01:08:33.960Z,3.47
2023-12-02T01:11:02.638Z,3.05
2023-12-02T01:13:30.450Z,3.65
2023-12-02T01:15:58.235Z,3.05
2023-12-02T01:18:25.765Z,3.47
2023-12-02T01:20:53.357Z,3.42
2023-12-02T01:23:21.000Z,3.15
2023-12-02T01:25:48.907Z,3.80
2023-12-02T01:28:16.661Z,3.33
2023-12-02T01:30:44.501Z,3.20
2023-12-02T01:33:12.350Z,3.38
2023-12-02T01:35:40.253Z,3.10
2023-12-02T01:38:07.808Z,3.15
2023-12-02T01:40:35.541Z,3.33
2023-12-02T01:43:04.917Z,3.30
2023-12-02T01:45:32.780Z,3.50
2023-12-02T01:48:01.471Z,3.10
2023-12-02T01:50:29.656Z,3.72
2023-12-02T01:52:57.451Z,3.63
2023-12-02T01:55:26.649Z,3.10
2023-12-02T01:57:54.305Z,3.20
2023-12-02T02:00:21.976Z,3.30
2023-12-02T02:02:49.562Z,3.22
2023-12-02T02:05:17.109Z,3.42
2023-12-02T02:07:44.572Z,3.58
2023-12-02T02:10:12.396Z,3.30
2023-12-02T02:12:40.203Z,3.22
2023-12-02T02:15:08.521Z,3.90
2023-12-02T02:17:36.398Z,2.55
2023-12-02T02:20:05.384Z,3.20
2023-12-02T02:22:32.953Z,3.45
2023-12-02T02:25:00.573Z,3.28
2023-12-02T02:27:28.076Z,3.30
2023-12-02T02:29:55.622Z,3.13
2023-12-02T02:32:23.495Z,3.45
2023-12-02T02:34:51.275Z,3.50
2023-12-02T02:37:19.036Z,3.38
2023-12-02T02:39:46.854Z,3.35
2023-12-02T02:42:14.654Z,3.53
2023-12-02T02:44:42.589Z,3.45
2023-12-02T02:47:10.471Z,3.10
2023-12-02T02:49:38.285Z,3.70
2023-12-02T02:52:06.160Z,3.38
2023-12-02T02:54:34.129Z,3.03
2023-12-02T02:57:02.571Z,3.47
2023-12-02T02:59:30.163Z,3.10
2023-12-02T03:01:58.099Z,3.42
2023-12-02T03:04:25.918Z,3.40
2023-12-02T03:06:53.733Z,3.58
2023-12-02T03:09:22.698Z,3.35
2023-12-02T03:11:51.894Z,3.55
2023-12-02T03:14:19.650Z,3.38
2023-12-02T03:16:47.350Z,3.60
2023-12-02T03:19:15.280Z,3.75
2023-12-02T03:21:42.815Z,3.03
2023-12-02T03:24:10.469Z,3.60
2023-12-02T03:26:38.300Z,3.40
2023-12-02T03:29:06.007Z,3.15
2023-12-02T03:31:33.547Z,2.97
2023-12-02T03:34:01.079Z,2.85
2023-12-02T03:36:28.970Z,3.28
2023-12-02T03:38:56.854Z,3.50
2023-12-02T03:41:24.579Z,3.35
2023-12-02T03:43:58.293Z,3.40
2023-12-02T03:46:30.011Z,3.13
2023-12-02T03:48:58.756Z,3.70
2023-12-02T03:51:26.713Z,3.40
2023-12-02T03:53:54.535Z,3.80
2023-12-02T03:56:22.124Z,3.30
2023-12-02T03:58:49.845Z,3.88
2023-12-02T04:01:18.978Z,3.85
2023-12-02T04:03:47.117Z,3.90
2023-12-02T04:06:15.224Z,3.42
2023-12-02T04:08:43.126Z,3.05
2023-12-02T04:11:10.920Z,3.40
2023-12-02T04:13:38.702Z,3.20
2023-12-02T04:16:07.322Z,3.67
2023-12-02T04:18:34.954Z,3.95
2023-12-02T04:21:05.778Z,3.53
2023-12-02T04:23:33.564Z,3.83
2023-12-02T04:26:02.012Z,3.45
2023-12-02T04:28:29.868Z,3.20
2023-12-02T04:30:58.430Z,3.25
2023-12-02T04:33:26.055Z,3.65
2023-12-02T04:35:55.235Z,3.67
2023-12-02T04:40:50.888Z,3.08
2023-12-02T04:43:18.436Z,2.58
2023-12-02T04:45:46.325Z,3.88
2023-12-02T04:48:14.228Z,3.22
2023-12-02T04:50:42.288Z,2.70
2023-12-02T04:53:10.439Z,3.53
2023-12-02T04:55:38.449Z,2.63
2023-12-02T04:58:06.793Z,3.80
2023-12-02T05:00:34.440Z,2.83
2023-12-02T05:03:02.356Z,3.70
2023-12-02T05:05:30.222Z,3.50
2023-12-02T05:07:57.877Z,3.53
2023-12-02T05:10:26.561Z,3.90
2023-12-02T05:12:54.384Z,3.70
2023-12-02T05:15:22.262Z,4.15
2023-12-02T05:17:50.493Z,3.47
2023-12-02T05:20:18.455Z,3.15
2023-12-02T05:22:49.179Z,3.50
2023-12-02T05:25:17.616Z,3.38
2023-12-02T05:27:45.194Z,3.40
2023-12-02T05:30:16.222Z,3.33
2023-12-02T05:32:44.039Z,3.60
2023-12-02T05:35:12.316Z,3.65
2023-12-02T05:37:41.122Z,3.72
2023-12-02T05:40:10.940Z,3.45
2023-12-02T05:42:38.808Z,3.55
2023-12-02T05:45:07.430Z,3.72
2023-12-02T05:47:35.155Z,3.58
2023-12-02T05:50:04.275Z,3.50
2023-12-02T05:52:32.142Z,3.17
2023-12-02T05:54:59.865Z,3.78
2023-12-02T05:57:27.457Z,3.35
2023-12-02T05:59:55.296Z,4.03
2023-12-02T06:02:23.028Z,3.28
2023-12-02T06:04:50.566Z,3.70
2023-12-02T06:07:18.101Z,3.47
2023-12-02T06:09:45.710Z,3.50
2023-12-02T06:12:13.571Z,3.30
2023-12-02T06:14:41.173Z,3.50
2023-12-02T06:17:10.062Z,3.55
2023-12-02T06:19:38.103Z,3.50
2023-12-02T06:22:05.953Z,2.60
2023-12-02T06:24:33.814Z,3.92
2023-12-02T06:27:01.754Z,4.05
2023-12-02T06:29:29.651Z,3.85
2023-12-02T06:31:57.272Z,4.25
2023-12-02T06:34:24.897Z,5.60
2023-12-02T06:36:52.448Z,5.68
2023-12-02T06:39:20.280Z,5.30
2023-12-02T06:41:48.046Z,4.15
2023-12-02T06:44:16.007Z,4.60
2023-12-02T06:46:43.839Z,4.50
2023-12-02T06:49:12.012Z,3.90
2023-12-02T06:51:39.868Z,6.47
2023-12-02T06:54:07.512Z,4.18
2023-12-02T06:56:35.113Z,4.30
2023-12-02T06:59:02.592Z,4.38
2023-12-02T07:01:32.529Z,4.13
2023-12-02T07:04:02.218Z,4.53
2023-12-02T07:08:58.000Z,3.77
2023-12-02T07:11:25.925Z,4.70
2023-12-02T07:13:53.795Z,4.18
2023-12-02T07:16:21.589Z,3.95
2023-12-02T07:18:49.541Z,4.20
2023-12-02T07:21:17.313Z,4.57
2023-12-02T07:23:46.135Z,5.22
2023-12-02T07:26:14.062Z,5.05
2023-12-02T07:28:42.621Z,4.75
2023-12-02T07:31:17.024Z,5.88
2023-12-02T07:33:44.972Z,4.68
2023-12-02T07:36:13.052Z,5.75
2023-12-02T07:38:42.027Z,6.20
2023-12-02T07:41:10.162Z,4.93
2023-12-02T07:43:38.382Z,4.25
2023-12-02T07:46:06.712Z,3.93
2023-12-02T07:48:34.358Z,3.90
2023-12-02T07:51:08.684Z,5.03
2023-12-02T07:53:36.317Z,5.10
2023-12-02T07:56:04.901Z,4.53
2023-12-02T07:58:32.552Z,5.15
2023-12-02T08:01:00.772Z,4.82
2023-12-02T08:03:28.279Z,3.70
2023-12-02T08:05:56.152Z,4.70
2023-12-02T08:08:23.977Z,4.32
2023-12-02T08:10:51.796Z,4.10
2023-12-02T08:13:19.345Z,4.90
2023-12-02T08:15:47.260Z,4.32
2023-12-02T08:18:16.767Z,4.43
2023-12-02T08:20:44.561Z,4.60
2023-12-02T08:23:12.366Z,4.38
2023-12-02T08:25:39.930Z,4.78
2023-12-02T08:28:07.858Z,4.40
2023-12-02T08:30:35.595Z,5.22
2023-12-02T08:33:04.802Z,4.95
2023-12-02T08:35:32.661Z,5.05
2023-12-02T08:38:00.283Z,3.97
2023-12-02T08:40:28.199Z,4.20
2023-12-02T08:42:55.988Z,4.28
2023-12-02T08:45:24.037Z,3.47
2023-12-02T08:47:51.542Z,4.82
2023-12-02T08:50:19.468Z,4.70
2023-12-02T08:52:47.365Z,4.35
2023-12-02T08:55:15.310Z,4.47
2023-12-02T08:57:43.071Z,3.90
2023-12-02T09:00:11.498Z,4.47
2023-12-02T09:02:39.389Z,3.13
2023-12-02T09:05:07.641Z,10.50
2023-12-02T09:07:35.313Z,6.00
2023-12-02T09:10:04.544Z,5.30
2023-12-02T09:12:32.919Z,5.60
2023-12-02T09:15:38.288Z,4.35
2023-12-02T09:18:06.262Z,4.22
2023-12-02T09:20:52.164Z,2.70
2023-12-02T09:23:21.376Z,4.10
2023-12-02T09:25:52.167Z,4.05
2023-12-02T09:28:23.072Z,3.65
2023-12-02T09:31:07.013Z,3.50
2023-12-02T09:33:38.780Z,3.85
2023-12-02T09:36:08.099Z,4.55
2023-12-02T09:41:09.663Z,4.05
2023-12-02T09:43:51.460Z,3.22
2023-12-02T09:46:33.564Z,4.03
2023-12-02T09:49:11.786Z,4.18
2023-12-02T09:51:39.426Z,3.53
2023-12-02T09:54:50.945Z,4.07
2023-12-02T09:57:27.191Z,5.30
2023-12-02T10:00:03.832Z,5.63
2023-12-02T10:02:49.626Z,4.60
2023-12-02T10:05:17.900Z,4.97
2023-12-02T10:07:52.474Z,3.63
2023-12-02T10:10:27.055Z,3.97
2023-12-02T10:13:19.594Z,4.45
2023-12-02T10:15:50.127Z,4.18
2023-12-02T10:18:22.697Z,3.80
2023-12-02T10:21:01.486Z,4.00
2023-12-02T10:23:50.786Z,4.47
2023-12-02T10:26:27.242Z,4.50
2023-12-02T10:29:32.523Z,4.40
2023-12-02T10:32:22.168Z,4.10
2023-12-02T10:35:10.144Z,4.13
2023-12-02T10:37:41.634Z,4.37
2023-12-02T10:40:11.439Z,4.88
2023-12-02T10:42:50.908Z,4.25
2023-12-02T10:45:21.034Z,4.45
2023-12-02T10:47:52.711Z,4.68
2023-12-02T10:50:21.912Z,4.25
2023-12-02T10:52:57.928Z,4.88
2023-12-02T10:55:29.975Z,4.65
2023-12-02T10:57:59.329Z,4.90
2023-12-02T11:03:06.203Z,5.13
2023-12-02T11:06:01.793Z,4.68
2023-12-02T11:08:55.351Z,4.30
2023-12-02T11:11:47.948Z,4.88
2023-12-02T11:14:19.377Z,5.25
2023-12-02T11:17:15.598Z,4.90
2023-12-02T11:20:08.719Z,5.47
2023-12-02T11:23:15.158Z,5.05
2023-12-02T11:26:08.521Z,5.18
2023-12-02T11:28:57.689Z,4.70
2023-12-02T11:31:26.204Z,4.78
2023-12-02T11:33:59.531Z,6.03
2023-12-02T11:36:46.534Z,5.55
2023-12-02T11:39:32.937Z,5.93
2023-12-02T11:42:19.915Z,6.13
2023-12-02T11:44:57.255Z,5.53
2023-12-02T11:47:41.258Z,6.10
2023-12-02T11:50:45.642Z,8.40
2023-12-02T11:53:38.070Z,6.25
2023-12-02T11:56:12.217Z,6.80
2023-12-02T11:58:52.824Z,6.25
2023-12-02T12:01:35.436Z,15.38
2023-12-02T12:04:03.179Z,13.68
2023-12-02T12:06:39.918Z,8.27
2023-12-02T12:09:29.430Z,7.97
2023-12-02T12:11:59.640Z,10.25
2023-12-02T12:14:30.514Z,6.90
2023-12-02T12:16:58.122Z,6.28
2023-12-02T12:19:25.597Z,5.53
2023-12-02T12:21:53.389Z,5.75
2023-12-02T12:24:20.894Z,6.47
2023-12-02T12:26:49.316Z,5.75
2023-12-02T12:29:17.134Z,6.85
2023-12-02T12:31:45.834Z,6.47
2023-12-02T12:34:14.413Z,5.47
2023-12-02T12:36:42.929Z,5.35
2023-12-02T12:39:11.647Z,6.15
2023-12-02T12:41:39.901Z,6.03
2023-12-02T12:44:08.485Z,4.38
2023-12-02T12:46:36.262Z,5.50
2023-12-02T12:49:07.899Z,5.57
2023-12-02T12:51:37.151Z,6.28
2023-12-02T12:54:07.324Z,7.15
2023-12-02T12:56:40.702Z,6.78
2023-12-02T12:59:15.864Z,6.13
2023-12-02T13:02:09.818Z,5.50
2023-12-02T13:04:48.698Z,5.55
2023-12-02T13:07:17.960Z,5.47
2023-12-02T13:09:50.861Z,5.35
2023-12-02T13:12:28.847Z,5.55
2023-12-02T13:15:05.040Z,4.97
2023-12-02T13:17:39.311Z,5.50
2023-12-02T13:20:09.103Z,5.47
2023-12-02T13:22:37.673Z,5.95
2023-12-02T13:25:17.882Z,5.78
2023-12-02T13:27:58.090Z,6.43
2023-12-02T13:30:26.277Z,5.72
2023-12-02T13:32:56.838Z,5.70
2023-12-02T13:35:31.786Z,5.38
2023-12-02T13:38:23.503Z,5.65
2023-12-02T13:40:53.787Z,5.20
2023-12-02T13:43:32.512Z,6.07
2023-12-02T13:46:02.873Z,5.80
2023-12-02T13:48:37.485Z,5.53
2023-12-02T13:51:20.866Z,6.03
2023-12-02T13:54:07.722Z,6.15
2023-12-02T13:56:58.454Z,6.78
2023-12-02T13:59:40.768Z,8.45
2023-12-02T14:02:20.960Z,9.45
2023-12-02T14:05:08.048Z,9.15
2023-12-02T14:07:51.623Z,8.68
2023-12-02T14:10:21.114Z,8.07
2023-12-02T14:13:01.544Z,7.25
2023-12-02T14:15:38.159Z,6.72
2023-12-02T14:18:48.361Z,7.53
2023-12-02T14:21:27.164Z,7.07
2023-12-02T14:24:09.938Z,7.57
2023-12-02T14:26:59.855Z,7.07
2023-12-02T14:29:52.769Z,7.43
2023-12-02T14:32:35.647Z,7.70
2023-12-02T14:35:32.215Z,7.65
2023-12-02T14:38:02.808Z,8.15
2023-12-02T14:40:45.269Z,6.85
2023-12-02T14:43:18.926Z,6.80
2023-12-02T14:45:50.312Z,7.32
2023-12-02T14:48:18.269Z,7.20
2023-12-02T14:50:46.524Z,6.63
2023-12-02T14:53:17.821Z,5.40
2023-12-02T14:55:45.450Z,7.45
2023-12-02T14:58:33.285Z,7.85
2023-12-02T15:01:05.690Z,6.43
2023-12-02T15:03:36.502Z,6.72
2023-12-02T15:06:06.639Z,6.47
2023-12-02T15:08:44.525Z,14.10
2023-12-02T15:11:12.789Z,14.90
2023-12-02T15:13:40.915Z,8.07
2023-12-02T15:16:09.357Z,7.82
2023-12-02T15:18:37.769Z,6.07
2023-12-02T15:21:09.411Z,5.75
2023-12-02T15:23:38.748Z,7.22
2023-12-02T15:26:12.038Z,7.75
2023-12-02T15:28:39.467Z,6.32
2023-12-02T15:31:19.063Z,6.38
2023-12-02T15:33:52.563Z,5.70
2023-12-02T15:36:22.428Z,5.95
2023-12-02T15:38:54.379Z,5.50
2023-12-02T15:41:24.342Z,5.70
2023-12-02T15:43:56.101Z,6.30
2023-12-02T15:46:23.880Z,5.78
2023-12-02T15:48:51.791Z,6.60
2023-12-02T15:51:20.690Z,5.90
2023-12-02T15:53:49.543Z,5.13
2023-12-02T15:58:47.399Z,5.05
2023-12-02T16:03:46.348Z,5.50
2023-12-02T16:06:16.356Z,4.28
2023-12-02T16:08:43.999Z,6.03
2023-12-02T16:11:11.790Z,5.70
2023-12-02T16:13:43.752Z,6.00
2023-12-02T16:16:18.428Z,7.03
2023-12-02T16:18:47.221Z,11.60
2023-12-02T16:21:18.538Z,15.82
2023-12-02T16:23:48.677Z,13.55
2023-12-02T16:26:18.040Z,11.48
2023-12-02T16:31:13.935Z,8.05
2023-12-02T16:33:46.496Z,7.80
2023-12-02T16:36:14.641Z,8.77
2023-12-02T16:38:42.491Z,8.53
2023-12-02T16:41:10.078Z,8.43
2023-12-02T16:43:38.338Z,7.07
2023-12-02T16:46:08.134Z,7.70
2023-12-02T16:48:37.449Z,6.68
2023-12-02T16:51:07.708Z,6.40
2023-12-02T16:53:36.290Z,6.72
2023-12-02T16:56:14.443Z,6.63
2023-12-02T16:58:48.131Z,6.50
2023-12-02T17:01:27.996Z,6.88
2023-12-02T17:03:56.328Z,6.40
2023-12-02T17:06:24.585Z,4.77
2023-12-02T17:08:58.030Z,6.57
2023-12-02T17:11:27.315Z,6.95
2023-12-02T17:16:32.764Z,6.97
2023-12-02T17:19:12.991Z,5.85
2023-12-02T17:22:01.818Z,6.57
2023-12-02T17:24:42.759Z,6.55
2023-12-02T17:27:33.469Z,6.60
2023-12-02T17:30:02.819Z,6.90
2023-12-02T17:32:30.869Z,8.60
2023-12-02T17:34:59.476Z,7.43
2023-12-02T17:37:27.413Z,7.57
2023-12-02T17:39:55.206Z,8.07
2023-12-02T17:42:23.136Z,8.75
2023-12-02T17:44:51.006Z,9.60
2023-12-02T17:47:18.616Z,11.10
2023-12-02T17:49:48.967Z,9.80
2023-12-02T17:52:16.499Z,9.25
2023-12-02T17:54:44.080Z,8.05
2023-12-02T17:57:12.222Z,7.70
2023-12-02T17:59:40.207Z,6.45
2023-12-02T18:02:08.166Z,7.90
2023-12-02T18:04:36.348Z,7.57
2023-12-02T18:07:04.491Z,8.32
2023-12-02T18:09:32.391Z,6.23
2023-12-02T18:12:01.501Z,7.63
2023-12-02T18:16:56.931Z,7.53
2023-12-02T18:19:24.503Z,6.28
2023-12-02T18:21:52.207Z,7.05
2023-12-02T18:24:20.447Z,7.07
2023-12-02T18:26:48.242Z,5.65
2023-12-02T18:29:16.040Z,5.78
2023-12-02T18:31:45.193Z,4.72
2023-12-02T18:36:40.752Z,6.15
2023-12-02T18:39:08.523Z,6.05
2023-12-02T18:41:36.107Z,5.57
2023-12-02T18:44:03.837Z,5.75
2023-12-02T18:46:31.346Z,5.40
2023-12-02T18:48:59.118Z,5.75
2023-12-02T18:51:26.717Z,5.55
2023-12-02T18:53:54.689Z,5.20
2023-12-02T18:56:22.739Z,5.85
2023-12-02T18:58:50.257Z,5.95
2023-12-02T19:01:18.276Z,6.05
2023-12-02T19:03:46.989Z,5.90
2023-12-02T19:06:17.286Z,5.18
2023-12-02T19:08:45.257Z,5.97
2023-12-02T19:11:12.711Z,5.82
2023-12-02T19:13:41.118Z,6.00
2023-12-02T19:16:11.781Z,6.53
2023-12-02T19:18:42.624Z,7.05
2023-12-02T19:21:11.420Z,6.57
2023-12-02T19:26:07.028Z,7.10
2023-12-02T19:28:34.587Z,7.65
2023-12-02T19:31:02.257Z,6.78
2023-12-02T19:33:30.345Z,7.80
2023-12-02T19:35:58.365Z,5.97
2023-12-02T19:38:25.849Z,7.40
2023-12-02T19:40:53.450Z,7.70
2023-12-02T19:43:21.002Z,7.82
2023-12-02T19:45:48.606Z,6.95
2023-12-02T19:48:17.292Z,7.68
2023-12-02T19:50:45.566Z,6.72
2023-12-02T19:53:13.692Z,5.78
2023-12-02T19:55:41.717Z,5.30
2023-12-02T19:58:13.937Z,5.93
2023-12-02T20:00:41.624Z,21.75
2023-12-02T20:03:09.227Z,24.63
2023-12-02T20:05:38.229Z,23.33
2023-12-02T20:08:05.792Z,10.35
2023-12-02T20:10:33.318Z,10.60
2023-12-02T20:13:00.862Z,22.45
2023-12-02T20:15:28.760Z,11.32
2023-12-02T20:17:56.609Z,10.75
2023-12-02T20:20:24.898Z,9.55
2023-12-02T20:22:52.698Z,7.68
2023-12-02T20:25:20.565Z,10.15
2023-12-02T20:27:48.301Z,9.10
2023-12-02T20:30:17.114Z,8.83
2023-12-02T20:32:46.435Z,9.60
2023-12-02T20:35:14.474Z,8.73
2023-12-02T20:37:42.295Z,9.18
2023-12-02T20:40:10.157Z,8.48
2023-12-02T20:42:38.686Z,7.18
2023-12-02T20:45:07.190Z,8.57
2023-12-02T20:47:35.382Z,7.97
2023-12-02T20:50:03.507Z,7.97
2023-12-02T20:52:31.230Z,10.00
2023-12-02T20:54:58.779Z,14.05
2023-12-02T20:57:27.192Z,9.93
2023-12-02T20:59:54.845Z,12.20
2023-12-02T21:02:22.716Z,7.55
2023-12-02T21:04:50.356Z,7.32
2023-12-02T21:07:17.932Z,7.43
2023-12-02T21:09:45.507Z,7.38
2023-12-02T21:12:13.029Z,6.85
2023-12-02T21:14:40.539Z,7.47
2023-12-02T21:17:08.838Z,6.93
2023-12-02T21:19:37.130Z,6.07
2023-12-02T21:22:05.077Z,8.90
2023-12-02T21:24:33.223Z,8.33
2023-12-02T21:27:00.923Z,9.95
2023-12-02T21:29:28.461Z,10.75
2023-12-02T21:31:56.284Z,11.15
2023-12-02T21:34:24.355Z,9.82
2023-12-02T21:36:52.062Z,8.18
2023-12-02T21:39:22.996Z,8.73
2023-12-02T21:41:50.695Z,7.88
2023-12-02T21:44:18.218Z,8.10
2023-12-02T21:46:46.936Z,7.25
2023-12-02T21:49:22.930Z,7.70
2023-12-02T21:51:54.019Z,7.93
2023-12-02T21:54:23.173Z,8.05
2023-12-02T21:56:53.166Z,8.07
2023-12-02T21:59:22.727Z,8.90
2023-12-02T22:01:55.397Z,7.78
2023-12-02T22:04:25.509Z,8.38
2023-12-02T22:07:02.458Z,8.63
2023-12-02T22:09:40.749Z,8.50
2023-12-02T22:12:20.315Z,8.65
2023-12-02T22:14:48.841Z,8.98
2023-12-02T22:17:23.463Z,7.90
2023-12-02T22:19:52.811Z,7.82
2023-12-02T22:22:41.359Z,7.72
2023-12-02T22:25:17.263Z,7.70
2023-12-02T22:27:44.922Z,7.40
2023-12-02T22:30:22.844Z,7.18
2023-12-02T22:33:01.355Z,6.75
2023-12-02T22:35:37.046Z,6.60
2023-12-02T22:38:06.080Z,6.72
2023-12-02T22:40:38.097Z,6.68
2023-12-02T22:43:08.970Z,7.40
2023-12-02T22:45:39.652Z,6.90
2023-12-02T22:48:15.811Z,6.85
2023-12-02T22:50:44.664Z,6.57
2023-12-02T22:53:34.164Z,6.82
2023-12-02T22:56:03.578Z,6.55
2023-12-02T22:58:36.442Z,7.13
2023-12-02T23:01:04.329Z,6.85
2023-12-02T23:03:39.556Z,7.63
2023-12-02T23:06:07.879Z,6.93
2023-12-02T23:08:35.496Z,6.80
2023-12-02T23:11:04.877Z,6.82
2023-12-02T23:13:38.244Z,7.05
2023-12-02T23:16:41.439Z,7.78
2023-12-02T23:19:23.535Z,7.47
2023-12-02T23:21:52.340Z,6.80
2023-12-02T23:26:47.787Z,6.40
2023-12-02T23:29:15.998Z,6.75
2023-12-02T23:31:45.076Z,7.18
2023-12-02T23:36:43.153Z,6.13
2023-12-02T23:39:30.415Z,7.18
2023-12-02T23:42:00.190Z,6.18
2023-12-02T23:44:44.668Z,7.35
2023-12-02T23:47:17.700Z,7.18
2023-12-02T23:49:45.682Z,6.82
2023-12-02T23:52:15.009Z,6.47
2023-12-02T23:54:43.087Z,6.97
2023-12-02T23:57:11.061Z,7.03
2023-12-02T23:59:38.888Z,6.65
